Allendale, South Carolina
Current Conditions -  °F | °C
As of 12:15 PM on Sunday 23 Nov 2014 (Local Time) from KAQX Reporting Station
Haze Haze  
Wind Chill: 61°   Ceiling: 500
Heat Index: 61°   Visibility: 2mi
Dew Point: 61°   Wind: 8mph
Humidity: 100%   Direction: 110°ESE
Pressure: 29.98"   Gusts: 15mph
Location:  33.01°N, 81.31°W
Report Text: KAQX 231715Z AUTO 11007G13KT 050V130 2SM BR OVC005 16/16 A2998 RMK AO2
Loading
Personal Weather Stations






























Interactive Weather Map New forecast layout! Learn more

10-Day Weather Forecast

Advertisements
Track Severe Weather on mobile